createdAt,value
2023-04-23T00:00:13.509Z,98.70
2023-04-23T00:02:44.693Z,98.70
2023-04-23T00:05:14.844Z,98.80
2023-04-23T00:07:43.714Z,98.80
2023-04-23T00:10:13.212Z,98.70
2023-04-23T00:12:43.694Z,98.70
2023-04-23T00:15:15.203Z,98.40
2023-04-23T00:17:43.425Z,98.40
2023-04-23T00:20:12.932Z,98.60
2023-04-23T00:22:41.336Z,98.70
2023-04-23T00:25:10.573Z,98.90
2023-04-23T00:27:39.072Z,99.10
2023-04-23T00:30:09.070Z,99.10
2023-04-23T00:32:38.745Z,99.10
2023-04-23T00:35:07.951Z,99.20
2023-04-23T00:37:36.314Z,99.30
2023-04-23T00:40:05.469Z,99.30
2023-04-23T00:42:33.730Z,99.30
2023-04-23T00:45:02.817Z,99.40
2023-04-23T00:47:31.290Z,99.50
2023-04-23T00:50:01.647Z,99.40
2023-04-23T00:52:30.545Z,99.50
2023-04-23T00:54:59.013Z,99.30
2023-04-23T00:57:28.128Z,99.40
2023-04-23T00:59:58.403Z,99.40
2023-04-23T01:02:28.638Z,99.40
2023-04-23T01:04:57.462Z,99.30
2023-04-23T01:07:28.722Z,99.40
2023-04-23T01:09:57.280Z,99.30
2023-04-23T01:12:25.719Z,99.40
2023-04-23T01:14:54.128Z,99.40
2023-04-23T01:17:23.033Z,99.40
2023-04-23T01:19:51.509Z,99.30
2023-04-23T01:22:21.349Z,99.30
2023-04-23T01:24:51.948Z,99.50
2023-04-23T01:27:22.380Z,99.60
2023-04-23T01:29:51.078Z,99.60
2023-04-23T01:32:20.536Z,99.60
2023-04-23T01:34:49.303Z,99.60
2023-04-23T01:37:18.036Z,99.70
2023-04-23T01:39:47.701Z,99.70
2023-04-23T01:42:16.038Z,99.60
2023-04-23T01:44:44.266Z,99.70
2023-04-23T01:47:12.604Z,99.60
2023-04-23T01:49:41.040Z,99.70
2023-04-23T01:52:09.647Z,99.70
2023-04-23T01:54:37.893Z,99.80
2023-04-23T01:57:07.724Z,99.80
2023-04-23T01:59:36.122Z,99.90
2023-04-23T02:02:04.488Z,99.90
2023-04-23T02:04:33.424Z,99.80
2023-04-23T02:07:01.859Z,99.80
2023-04-23T02:09:30.479Z,99.80
2023-04-23T02:12:02.823Z,99.70
2023-04-23T02:14:32.527Z,99.70
2023-04-23T02:17:00.780Z,99.80
2023-04-23T02:19:31.131Z,99.90
2023-04-23T02:21:59.399Z,99.90
2023-04-23T02:24:27.685Z,99.90
2023-04-23T02:26:55.981Z,99.90
2023-04-23T02:29:24.154Z,99.90
2023-04-23T02:31:53.924Z,99.90
2023-04-23T02:34:22.340Z,99.90
2023-04-23T02:36:51.085Z,99.90
2023-04-23T02:39:19.323Z,99.90
2023-04-23T02:41:47.610Z,99.90
2023-04-23T02:44:15.911Z,99.90
2023-04-23T02:46:44.167Z,99.90
2023-04-23T02:49:14.752Z,99.90
2023-04-23T02:51:43.360Z,99.90
2023-04-23T02:54:11.975Z,99.90
2023-04-23T02:56:40.457Z,99.90
2023-04-23T02:59:09.490Z,99.90
2023-04-23T03:01:37.932Z,99.90
2023-04-23T03:04:09.306Z,99.90
2023-04-23T03:06:39.296Z,99.90
2023-04-23T03:09:07.572Z,99.90
2023-04-23T03:11:35.926Z,99.90
2023-04-23T03:14:04.326Z,99.90
2023-04-23T03:16:32.717Z,99.90
2023-04-23T03:19:01.175Z,99.90
2023-04-23T03:21:29.746Z,99.90
2023-04-23T03:23:59.458Z,99.90
2023-04-23T03:26:27.728Z,99.90
2023-04-23T03:28:55.964Z,99.90
2023-04-23T03:31:24.424Z,99.90
2023-04-23T03:33:54.549Z,99.90
2023-04-23T03:36:30.266Z,99.90
2023-04-23T03:39:00.151Z,99.90
2023-04-23T03:41:33.701Z,99.90
2023-04-23T03:44:03.328Z,99.90
2023-04-23T03:46:46.242Z,99.90
2023-04-23T03:49:17.236Z,99.90
2023-04-23T03:51:46.166Z,99.90
2023-04-23T03:54:15.815Z,99.90
2023-04-23T03:56:57.704Z,99.90
2023-04-23T03:59:29.939Z,99.90
2023-04-23T04:02:01.282Z,99.90
2023-04-23T04:04:29.799Z,99.90
2023-04-23T04:06:58.583Z,99.90
2023-04-23T04:09:30.667Z,99.90
2023-04-23T04:12:02.868Z,99.90
2023-04-23T04:14:32.218Z,99.90
2023-04-23T04:17:00.533Z,99.90
2023-04-23T04:19:28.807Z,99.90
2023-04-23T04:21:57.139Z,99.90
2023-04-23T04:24:26.337Z,99.90
2023-04-23T04:26:56.126Z,99.90
2023-04-23T04:29:24.498Z,99.90
2023-04-23T04:31:53.005Z,99.90
2023-04-23T04:34:21.422Z,99.90
2023-04-23T04:36:51.539Z,99.90
2023-04-23T04:39:20.011Z,99.90
2023-04-23T04:41:48.640Z,99.90
2023-04-23T04:44:18.856Z,99.90
2023-04-23T04:46:48.113Z,99.90
2023-04-23T04:49:19.537Z,99.90
2023-04-23T04:51:47.977Z,99.90
2023-04-23T04:54:16.339Z,99.90
2023-04-23T04:56:44.568Z,99.90
2023-04-23T04:59:12.821Z,99.90
2023-04-23T05:01:42.966Z,99.90
2023-04-23T05:04:11.342Z,99.90
2023-04-23T05:06:39.798Z,99.90
2023-04-23T05:09:08.248Z,99.90
2023-04-23T05:11:36.903Z,99.90
2023-04-23T05:14:05.397Z,99.90
2023-04-23T05:16:34.607Z,99.90
2023-04-23T05:19:04.323Z,99.90
2023-04-23T05:21:32.681Z,99.90
2023-04-23T05:24:00.951Z,99.90
2023-04-23T05:26:29.610Z,99.90
2023-04-23T05:28:58.013Z,99.80
2023-04-23T05:31:28.141Z,99.40
2023-04-23T05:33:57.651Z,98.90
2023-04-23T05:36:27.482Z,98.30
2023-04-23T05:38:55.892Z,97.30
2023-04-23T05:41:24.286Z,97.10
2023-04-23T05:43:52.540Z,96.10
2023-04-23T05:46:21.004Z,95.50
2023-04-23T05:48:49.246Z,95.10
2023-04-23T05:51:17.476Z,95.10
2023-04-23T05:53:47.150Z,94.70
2023-04-23T05:56:15.413Z,94.40
2023-04-23T05:58:43.778Z,94.40
2023-04-23T06:01:12.030Z,93.90
2023-04-23T06:03:45.528Z,93.20
2023-04-23T06:06:14.481Z,93.40
2023-04-23T06:08:42.756Z,92.90
2023-04-23T06:11:12.410Z,92.30
2023-04-23T06:13:43.934Z,90.60
2023-04-23T06:16:12.449Z,90.50
2023-04-23T06:18:40.841Z,90.10
2023-04-23T06:21:09.713Z,90.00
2023-04-23T06:23:37.954Z,90.20
2023-04-23T06:26:06.524Z,89.30
2023-04-23T06:28:36.260Z,86.00
2023-04-23T06:31:27.765Z,85.80
2023-04-23T06:33:56.086Z,85.10
2023-04-23T06:36:24.330Z,85.00
2023-04-23T06:38:52.531Z,84.70
2023-04-23T06:41:20.921Z,85.50
2023-04-23T06:43:59.537Z,86.20
2023-04-23T06:46:37.640Z,85.20
2023-04-23T06:49:09.290Z,83.60
2023-04-23T06:51:37.602Z,84.40
2023-04-23T06:54:06.059Z,84.20
2023-04-23T06:56:34.320Z,84.20
2023-04-23T06:59:08.093Z,83.50
2023-04-23T07:01:44.153Z,83.50
2023-04-23T07:04:12.400Z,82.70
2023-04-23T07:06:40.716Z,84.30
2023-04-23T07:09:09.083Z,83.40
2023-04-23T07:11:37.466Z,81.70
2023-04-23T07:14:07.486Z,75.10
2023-04-23T07:16:36.260Z,71.60
2023-04-23T07:19:04.911Z,69.20
2023-04-23T07:21:33.316Z,68.60
2023-04-23T07:24:06.898Z,69.90
2023-04-23T07:26:35.592Z,68.10
2023-04-23T07:29:04.170Z,68.20
2023-04-23T07:31:33.900Z,68.10
2023-04-23T07:34:02.383Z,70.00
2023-04-23T07:36:31.384Z,69.40
2023-04-23T07:38:59.768Z,69.30
2023-04-23T07:41:28.352Z,70.60
2023-04-23T07:43:56.741Z,70.10
2023-04-23T07:46:25.179Z,70.50
2023-04-23T07:48:55.801Z,67.80
2023-04-23T07:51:26.765Z,69.50
2023-04-23T07:53:56.470Z,70.40
2023-04-23T07:56:24.901Z,71.00
2023-04-23T07:58:56.638Z,70.70
2023-04-23T08:01:25.126Z,72.60
2023-04-23T08:03:59.105Z,71.50
2023-04-23T08:06:30.021Z,70.30
2023-04-23T08:08:58.755Z,71.00
2023-04-23T08:11:29.565Z,69.50
2023-04-23T08:13:57.878Z,70.90
2023-04-23T08:16:30.732Z,70.20
2023-04-23T08:19:05.501Z,70.60
2023-04-23T08:21:34.511Z,69.20
2023-04-23T08:24:04.456Z,69.10
2023-04-23T08:26:32.937Z,69.50
2023-04-23T08:29:01.845Z,67.30
2023-04-23T08:31:30.349Z,66.50
2023-04-23T08:34:00.516Z,67.60
2023-04-23T08:36:29.517Z,68.60
2023-04-23T08:38:58.070Z,68.30
2023-04-23T08:41:31.761Z,65.60
2023-04-23T08:44:07.346Z,67.50
2023-04-23T08:46:38.051Z,66.70
2023-04-23T08:49:09.613Z,64.50
2023-04-23T08:51:43.879Z,65.50
2023-04-23T08:54:17.732Z,64.40
2023-04-23T08:56:47.292Z,63.40
2023-04-23T08:59:17.991Z,65.00
2023-04-23T09:01:46.427Z,65.30
2023-04-23T09:04:24.836Z,63.60
2023-04-23T09:06:53.866Z,64.00
2023-04-23T09:09:24.863Z,63.10
2023-04-23T09:11:54.871Z,61.20
2023-04-23T09:14:25.865Z,58.10
2023-04-23T09:16:56.373Z,56.40
2023-04-23T09:19:28.407Z,57.10
2023-04-23T09:21:56.705Z,49.40
2023-04-23T09:24:30.958Z,45.00
2023-04-23T09:26:59.999Z,43.60
2023-04-23T09:29:28.569Z,41.70
2023-04-23T09:32:04.413Z,40.40
2023-04-23T09:34:37.714Z,38.90
2023-04-23T09:37:08.014Z,36.90
2023-04-23T09:39:36.780Z,35.90
2023-04-23T09:42:09.889Z,35.20
2023-04-23T09:44:40.562Z,34.20
2023-04-23T09:47:12.343Z,33.10
2023-04-23T09:49:49.196Z,33.20
